Time;durP1;ratioP1;P1;durP2;ratioP2;P2;SDS_P1;SDS_P2;PMS_P1;PMS_P2;Temp;Humidity;BMP_temperature;BMP_pressure;BME280_temperature;BME280_humidity;BME280_pressure;Samples;Min_cycle;Max_cycle;Signal;HPM_P1;HPM_P2
2023/06/13 00:01:50;;;;;;;5.35;3.47;;;;;;;14.79;70.64;100526.55;1705577;83;22170;-55
2023/06/13 00:04:57;;;;;;;7.65;3.45;;;;;;;14.77;70.67;100520.41;1707054;84;21363;-54
2023/06/13 00:07:56;;;;;;;6.90;3.17;;;;;;;14.76;70.63;100516.47;1707143;84;21915;-54
2023/06/13 00:11:02;;;;;;;4.22;2.92;;;;;;;14.71;70.61;100522.55;1707092;84;21382;-56
2023/06/13 00:14:12;;;;;;;7.40;3.52;;;;;;;14.70;70.66;100511.73;1707013;84;21761;-52
2023/06/13 00:17:17;;;;;;;6.80;3.20;;;;;;;14.70;70.68;100515.34;1707100;84;21410;-52
2023/06/13 00:20:24;;;;;;;6.47;3.35;;;;;;;14.70;70.71;100520.00;1705859;83;21361;-53
2023/06/13 00:23:30;;;;;;;4.00;3.05;;;;;;;14.70;70.72;100520.86;1707087;84;21370;-53
2023/06/13 00:26:36;;;;;;;9.98;3.20;;;;;;;14.70;70.77;100522.23;1706553;83;21393;-56
2023/06/13 00:29:43;;;;;;;6.87;3.83;;;;;;;14.71;70.81;100520.34;1706984;84;21370;-54
2023/06/13 00:32:55;;;;;;;6.33;3.40;;;;;;;14.69;70.68;100512.80;1704960;84;21466;-54
2023/06/13 00:36:03;;;;;;;5.72;3.55;;;;;;;14.59;70.50;100510.38;1673908;85;21381;-53
2023/06/13 00:39:10;;;;;;;8.18;4.28;;;;;;;14.50;70.48;100503.83;1673960;85;21374;-54
2023/06/13 00:42:17;;;;;;;4.72;3.52;;;;;;;14.44;70.54;100501.36;1673998;85;21358;-54
2023/06/13 00:45:33;;;;;;;9.53;4.05;;;;;;;14.38;70.52;100502.66;1624709;88;21288;-53
2023/06/13 00:48:42;;;;;;;6.40;4.00;;;;;;;14.33;70.57;100507.91;1673954;85;21430;-53
2023/06/13 00:51:47;;;;;;;7.70;3.17;;;;;;;14.29;70.67;100504.69;1626652;88;21770;-52
2023/06/13 00:54:56;;;;;;;8.73;4.10;;;;;;;14.25;70.65;100501.16;1674552;85;21883;-52
2023/06/13 00:58:10;;;;;;;5.40;4.08;;;;;;;14.17;70.57;100508.99;1674078;85;21385;-52
2023/06/13 01:01:19;;;;;;;7.37;3.98;;;;;;;14.12;70.60;100510.61;1673837;85;21216;-53
2023/06/13 01:04:27;;;;;;;5.75;4.20;;;;;;;14.07;70.72;100507.07;1626080;87;21242;-52
2023/06/13 01:07:38;;;;;;;8.60;4.85;;;;;;;14.07;70.94;100504.33;1626240;87;21729;-52
2023/06/13 01:10:43;;;;;;;5.40;3.92;;;;;;;14.06;70.95;100514.16;1673820;85;21393;-53
2023/06/13 01:14:03;;;;;;;7.20;4.33;;;;;;;14.06;71.03;100510.89;1674028;85;21366;-53
2023/06/13 01:17:12;;;;;;;7.95;4.12;;;;;;;14.05;71.03;100516.59;1625517;88;21255;-53
2023/06/13 01:20:18;;;;;;;4.53;3.77;;;;;;;14.05;71.09;100511.08;1626286;88;21366;-54
2023/06/13 01:23:35;;;;;;;5.35;3.77;;;;;;;14.03;71.09;100504.91;1625786;88;21283;-53
2023/06/13 01:27:07;;;;;;;6.78;4.20;;;;;;;14.00;71.03;100510.81;1632259;86;21748;-54
2023/06/13 01:30:14;;;;;;;7.47;3.92;;;;;;;13.93;71.00;100502.98;1613480;88;21270;-53
2023/06/13 01:33:21;;;;;;;6.25;4.00;;;;;;;13.87;71.07;100505.14;1627301;87;21461;-52
2023/06/13 01:36:26;;;;;;;6.80;4.78;;;;;;;13.87;71.29;100506.52;1667186;85;21291;-53
2023/06/13 01:39:32;;;;;;;7.25;4.17;;;;;;;13.90;71.45;100517.14;1687971;84;21208;-53
2023/06/13 01:42:38;;;;;;;8.35;4.20;;;;;;;13.90;71.42;100519.89;1707185;84;21345;-51
2023/06/13 01:45:45;;;;;;;8.63;4.42;;;;;;;13.86;71.38;100521.34;1707205;83;21357;-53
2023/06/13 01:49:02;;;;;;;7.42;5.00;;;;;;;13.87;71.49;100518.91;1707259;84;21388;-52
2023/06/13 01:52:31;;;;;;;4.92;4.22;;;;;;;13.86;71.54;100518.59;1707217;84;21263;-52
2023/06/13 01:55:51;;;;;;;7.20;4.30;;;;;;;13.88;71.64;100520.60;1706941;84;21215;-52
2023/06/13 01:59:15;;;;;;;7.30;4.42;;;;;;;13.87;71.64;100518.91;1706779;84;21377;-53
2023/06/13 02:02:24;;;;;;;9.38;4.17;;;;;;;13.87;71.77;100523.03;1688996;84;21341;-55
2023/06/13 02:05:35;;;;;;;8.33;4.10;;;;;;;13.87;71.82;100524.41;1707189;84;21365;-52
2023/06/13 02:08:43;;;;;;;8.38;4.25;;;;;;;13.86;71.79;100525.47;1689655;84;21397;-52
2023/06/13 02:11:50;;;;;;;5.60;4.22;;;;;;;13.85;71.79;100530.62;1707078;84;21381;-52
2023/06/13 02:14:56;;;;;;;8.33;4.25;;;;;;;13.80;71.72;100530.34;1706402;84;21910;-54
2023/06/13 02:18:03;;;;;;;6.60;4.78;;;;;;;13.75;71.71;100527.34;1707207;84;21357;-52
2023/06/13 02:21:10;;;;;;;10.58;4.40;;;;;;;13.74;71.84;100526.99;1707016;83;21446;-52
2023/06/13 02:24:15;;;;;;;7.28;4.40;;;;;;;13.72;71.85;100530.45;1707165;84;21497;-54
2023/06/13 02:27:24;;;;;;;7.22;4.78;;;;;;;13.68;71.87;100529.14;1707220;84;21351;-53
2023/06/13 02:30:29;;;;;;;12.73;4.90;;;;;;;13.67;71.96;100533.78;1707259;84;21738;-54
2023/06/13 02:33:38;;;;;;;7.70;4.15;;;;;;;13.69;72.09;100541.84;1707166;84;21449;-53
2023/06/13 02:36:43;;;;;;;7.70;4.28;;;;;;;13.70;72.13;100544.40;1703513;84;21433;-53
2023/06/13 02:39:48;;;;;;;8.40;4.50;;;;;;;13.71;72.22;100551.63;1707107;84;21409;-53
2023/06/13 02:42:58;;;;;;;6.65;4.03;;;;;;;13.74;72.28;100546.25;1707146;84;21433;-55
2023/06/13 02:46:04;;;;;;;4.72;3.92;;;;;;;13.74;72.28;100547.12;1706908;84;21390;-53
2023/06/13 02:49:09;;;;;;;9.05;4.10;;;;;;;13.77;72.41;100547.24;1707200;84;21370;-52
2023/06/13 02:52:16;;;;;;;6.05;4.08;;;;;;;13.80;72.51;100544.10;1707173;83;21370;-53
2023/06/13 02:55:21;;;;;;;7.10;5.05;;;;;;;13.79;72.48;100546.53;1707211;84;21354;-52
2023/06/13 02:58:28;;;;;;;7.60;4.70;;;;;;;13.79;72.46;100547.91;1706823;84;21377;-52
2023/06/13 03:01:34;;;;;;;8.18;4.90;;;;;;;13.77;72.50;100544.48;1707275;84;21718;-54
2023/06/13 03:04:41;;;;;;;9.00;4.70;;;;;;;13.76;72.47;100549.16;1707187;84;21895;-54
2023/06/13 03:07:47;;;;;;;7.97;4.30;;;;;;;13.74;72.46;100549.00;1707160;84;21914;-52
2023/06/13 03:10:52;;;;;;;8.78;4.65;;;;;;;13.76;72.61;100546.41;1706938;84;21366;-53
2023/06/13 03:13:59;;;;;;;7.33;4.22;;;;;;;13.79;72.73;100548.77;1706986;84;21378;-53
2023/06/13 03:17:06;;;;;;;6.58;5.05;;;;;;;13.81;72.72;100547.20;1707200;84;21409;-52
2023/06/13 03:20:16;;;;;;;6.03;4.37;;;;;;;13.79;72.65;100549.28;1707295;84;21350;-50
2023/06/13 03:23:25;;;;;;;5.58;4.30;;;;;;;13.78;72.70;100549.80;1707238;84;21883;-53
2023/06/13 03:26:37;;;;;;;5.70;4.08;;;;;;;13.79;72.78;100552.04;1705538;83;21919;-52
2023/06/13 03:29:41;;;;;;;7.50;4.58;;;;;;;13.77;72.84;100550.86;1706712;84;21362;-52
2023/06/13 03:32:54;;;;;;;5.62;4.42;;;;;;;13.76;72.77;100559.30;1707117;83;21390;-49
2023/06/13 03:36:00;;;;;;;6.35;4.10;;;;;;;13.76;72.81;100553.80;1707158;84;21923;-51
2023/06/13 03:39:09;;;;;;;4.92;4.33;;;;;;;13.73;72.80;100556.39;1709435;84;21234;-50
2023/06/13 03:42:15;;;;;;;6.30;4.72;;;;;;;13.74;72.85;100554.51;1706285;83;21345;-52
2023/06/13 03:45:24;;;;;;;7.12;4.25;;;;;;;13.71;72.84;100561.77;1709550;84;21196;-53
2023/06/13 03:48:30;;;;;;;7.87;4.05;;;;;;;13.71;72.93;100557.13;1709196;83;21223;-51
2023/06/13 03:51:37;;;;;;;7.47;4.72;;;;;;;13.75;73.05;100558.98;1709579;83;21630;-53
2023/06/13 03:54:45;;;;;;;5.08;4.05;;;;;;;13.73;72.93;100559.69;1709399;84;21223;-51
2023/06/13 03:57:54;;;;;;;9.08;4.10;;;;;;;13.68;72.87;100565.77;1709430;84;21266;-52
2023/06/13 04:01:00;;;;;;;7.28;4.67;;;;;;;13.67;73.04;100554.42;1709572;84;21196;-52
2023/06/13 04:04:08;;;;;;;6.87;4.10;;;;;;;13.67;73.08;100556.34;1709452;84;21223;-51
2023/06/13 04:07:15;;;;;;;7.80;5.00;;;;;;;13.67;73.17;100553.05;1709506;83;21795;-52
2023/06/13 04:10:21;;;;;;;17.92;4.50;;;;;;;13.68;73.22;100556.14;1709397;83;21203;-51
2023/06/13 04:13:27;;;;;;;8.38;4.60;;;;;;;13.69;73.22;100556.97;1709932;83;21646;-53
2023/06/13 04:16:33;;;;;;;7.78;4.50;;;;;;;13.67;73.17;100550.83;1709453;83;21243;-51
2023/06/13 04:19:39;;;;;;;8.93;4.62;;;;;;;13.67;73.31;100553.05;1709124;83;21323;-56
2023/06/13 04:22:46;;;;;;;5.25;4.50;;;;;;;13.73;73.53;100544.56;1709071;83;21215;-52
2023/06/13 04:25:52;;;;;;;12.10;4.80;;;;;;;13.78;73.57;100546.22;1709002;83;21262;-50
2023/06/13 04:28:57;;;;;;;6.80;4.75;;;;;;;13.80;73.55;100546.34;1708825;84;21328;-52
2023/06/13 04:32:07;;;;;;;9.80;4.58;;;;;;;13.86;73.64;100543.36;1709004;84;21200;-51
2023/06/13 04:35:17;;;;;;;6.80;4.35;;;;;;;13.87;73.54;100545.05;1708898;83;21259;-52
2023/06/13 04:38:24;;;;;;;6.58;4.33;;;;;;;13.87;73.52;100540.41;1704399;83;21350;-53
2023/06/13 04:41:33;;;;;;;7.72;4.65;;;;;;;13.93;73.59;100548.40;1706679;84;21374;-54
2023/06/13 04:44:38;;;;;;;7.28;4.47;;;;;;;14.03;73.75;100547.58;1706918;83;21432;-54
2023/06/13 04:47:45;;;;;;;5.62;4.33;;;;;;;14.12;73.81;100541.76;1707239;83;21401;-53
2023/06/13 04:50:54;;;;;;;12.93;4.87;;;;;;;14.19;73.84;100548.72;1707132;83;21223;-53
2023/06/13 04:54:02;;;;;;;10.75;4.65;;;;;;;14.23;73.78;100541.76;1706670;84;21385;-54
2023/06/13 04:57:10;;;;;;;7.25;4.75;;;;;;;14.24;73.68;100542.97;1710975;82;21279;-54
2023/06/13 05:00:18;;;;;;;6.75;4.70;;;;;;;14.29;73.76;100539.11;1736954;82;21208;-54
2023/06/13 05:03:29;;;;;;;5.87;4.37;;;;;;;14.37;73.82;100548.63;1741192;82;21295;-54
2023/06/13 05:06:37;;;;;;;7.80;4.30;;;;;;;14.41;73.77;100540.28;1740839;81;21232;-54
2023/06/13 05:09:46;;;;;;;8.78;4.55;;;;;;;14.49;73.89;100543.45;1731682;81;21680;-53
2023/06/13 05:12:58;;;;;;;9.70;4.75;;;;;;;14.60;73.95;100547.89;1728774;83;21382;-52
2023/06/13 05:16:07;;;;;;;7.97;4.22;;;;;;;14.68;73.93;100540.03;1734750;82;21394;-53
2023/06/13 05:19:13;;;;;;;4.53;3.85;;;;;;;14.76;73.99;100544.03;1740313;81;21215;-55
2023/06/13 05:22:19;;;;;;;6.60;3.77;;;;;;;14.87;74.02;100547.62;1739095;80;21777;-54
2023/06/13 05:25:24;;;;;;;6.45;4.53;;;;;;;14.95;73.91;100541.97;1739954;82;21200;-54
2023/06/13 05:28:30;;;;;;;9.63;4.40;;;;;;;15.03;73.86;100543.71;1711093;82;21347;-54
2023/06/13 05:31:36;;;;;;;8.45;4.17;;;;;;;15.08;73.87;100546.17;1736486;82;21370;-53
2023/06/13 05:34:51;;;;;;;6.67;4.53;;;;;;;15.12;73.73;100540.60;1735114;81;21341;-54
2023/06/13 05:37:58;;;;;;;7.53;4.75;;;;;;;15.16;73.66;100541.06;1729862;82;22189;-58
2023/06/13 05:41:06;;;;;;;7.42;4.62;;;;;;;15.21;73.70;100528.35;1734956;82;21232;-57
2023/06/13 05:44:13;;;;;;;8.98;4.33;;;;;;;15.31;73.75;100535.75;1735109;82;21192;-58
2023/06/13 05:47:18;;;;;;;8.98;4.50;;;;;;;15.34;73.70;100538.09;1730202;82;21747;-59
2023/06/13 05:50:24;;;;;;;8.55;4.55;;;;;;;15.46;73.93;100542.56;1725365;82;21228;-59
2023/06/13 05:53:30;;;;;;;6.50;4.90;;;;;;;15.63;74.09;100537.88;1732172;82;21363;-57
2023/06/13 05:56:37;;;;;;;7.10;4.75;;;;;;;15.79;74.03;100538.88;1737798;82;21218;-57
2023/06/13 05:59:43;;;;;;;7.90;4.78;;;;;;;15.91;73.80;100544.16;1731735;82;21200;-58
2023/06/13 06:02:53;;;;;;;8.48;4.08;;;;;;;16.03;73.71;100541.66;1741145;82;21714;-58
2023/06/13 06:06:00;;;;;;;10.13;4.80;;;;;;;16.21;73.82;100534.48;1710070;82;21361;-59
2023/06/13 06:09:07;;;;;;;6.85;3.70;;;;;;;16.46;73.89;100534.77;1740851;82;21231;-57
2023/06/13 06:12:14;;;;;;;8.58;4.37;;;;;;;16.70;73.83;100540.25;1741215;81;21331;-58
2023/06/13 06:15:21;;;;;;;4.55;3.20;;;;;;;16.88;73.65;100533.54;1733314;82;21868;-58
2023/06/13 06:18:27;;;;;;;10.85;4.58;;;;;;;17.08;73.51;100534.37;1741400;82;21235;-60
2023/06/13 06:21:33;;;;;;;6.08;4.35;;;;;;;17.17;73.14;100524.80;1741953;82;21330;-60
2023/06/13 06:24:40;;;;;;;5.53;3.87;;;;;;;17.15;72.89;100522.78;1742898;81;21362;-59
2023/06/13 06:27:48;;;;;;;8.23;4.03;;;;;;;17.16;72.75;100521.70;1741820;82;21209;-56
2023/06/13 06:30:55;;;;;;;6.15;3.90;;;;;;;17.22;72.94;100511.19;1732027;82;21221;-58
2023/06/13 06:34:04;;;;;;;6.00;3.47;;;;;;;17.43;73.23;100504.84;1736216;82;21251;-58
2023/06/13 06:37:13;;;;;;;8.05;4.28;;;;;;;17.72;73.36;100506.27;1727282;81;21781;-57
2023/06/13 06:40:19;;;;;;;8.78;4.08;;;;;;;17.90;73.08;100517.50;1735736;81;21203;-60
2023/06/13 06:43:28;;;;;;;5.60;3.70;;;;;;;18.04;72.96;100510.81;1689308;84;21743;-59
2023/06/13 06:46:35;;;;;;;5.50;3.92;;;;;;;18.24;72.99;100510.16;1679007;83;21195;-58
2023/06/13 06:49:41;;;;;;;6.90;4.20;;;;;;;18.43;72.84;100518.06;1670257;84;21256;-57
2023/06/13 06:52:46;;;;;;;9.88;3.77;;;;;;;18.63;72.81;100514.08;1690177;84;21224;-56
2023/06/13 06:55:52;;;;;;;4.08;3.17;;;;;;;18.79;72.48;100509.37;1703460;84;21214;-57
2023/06/13 06:58:57;;;;;;;7.97;4.20;;;;;;;18.93;72.29;100517.88;1670375;84;21218;-57
2023/06/13 07:02:03;;;;;;;7.87;3.45;;;;;;;19.01;72.01;100521.77;1666538;85;21247;-57
2023/06/13 07:05:09;;;;;;;7.37;3.80;;;;;;;19.04;71.92;100509.38;1666949;86;21236;-58
2023/06/13 07:08:15;;;;;;;10.65;3.75;;;;;;;19.22;71.95;100516.34;1688111;84;21300;-58
2023/06/13 07:11:22;;;;;;;6.03;3.77;;;;;;;19.34;71.81;100508.44;1682164;84;21216;-57
2023/06/13 07:14:29;;;;;;;32.33;23.57;;;;;;;19.36;71.54;100513.77;1684507;83;22076;-57
2023/06/13 07:17:33;;;;;;;6.55;4.65;;;;;;;19.45;71.39;100512.41;1663916;86;21612;-58
2023/06/13 07:20:39;;;;;;;8.55;4.30;;;;;;;19.46;71.17;100507.68;1709189;81;21673;-57
2023/06/13 07:23:46;;;;;;;6.05;3.80;;;;;;;19.50;71.21;100501.99;1724963;83;21744;-59
2023/06/13 07:26:53;;;;;;;5.28;3.70;;;;;;;19.70;71.39;100499.83;1733274;81;21226;-58
2023/06/13 07:30:00;;;;;;;4.95;3.45;;;;;;;19.80;71.20;100495.44;1728668;81;21279;-57
2023/06/13 07:33:06;;;;;;;6.62;3.08;;;;;;;19.89;71.08;100500.12;1724071;83;21780;-58
2023/06/13 07:36:16;;;;;;;7.12;3.72;;;;;;;20.06;71.24;100498.42;1727359;82;21230;-59
2023/06/13 07:39:23;;;;;;;6.53;3.75;;;;;;;20.33;71.36;100498.36;1731140;81;21251;-58
2023/06/13 07:42:29;;;;;;;5.50;4.05;;;;;;;20.51;71.12;100503.88;1731812;81;21363;-58
2023/06/13 07:45:36;;;;;;;12.13;4.85;;;;;;;20.53;70.53;100500.32;1729704;82;21259;-60
2023/06/13 07:48:42;;;;;;;6.33;3.65;;;;;;;20.54;70.32;100508.95;1718764;82;21204;-60
2023/06/13 07:51:50;;;;;;;11.22;3.67;;;;;;;20.61;70.40;100504.16;1726578;82;21531;-58
2023/06/13 07:54:56;;;;;;;11.20;5.25;;;;;;;20.72;70.47;100507.50;1730231;82;21197;-58
2023/06/13 07:58:02;;;;;;;9.13;4.10;;;;;;;20.87;70.43;100503.70;1734511;82;21700;-58
2023/06/13 08:01:08;;;;;;;6.55;3.50;;;;;;;20.95;70.18;100500.57;1734671;81;21191;-54
2023/06/13 08:04:14;;;;;;;6.25;3.80;;;;;;;21.00;69.94;100502.13;1675193;84;21271;-55
2023/06/13 08:07:20;;;;;;;9.93;4.33;;;;;;;21.01;69.63;100499.63;1727432;81;21194;-56
2023/06/13 08:10:26;;;;;;;4.30;3.45;;;;;;;21.12;69.72;100502.97;1732518;82;21548;-55
2023/06/13 08:13:35;;;;;;;8.05;3.55;;;;;;;21.23;69.76;100499.34;1732806;81;21266;-54
2023/06/13 08:16:47;;;;;;;6.12;3.62;;;;;;;21.47;69.76;100497.42;1725694;81;21215;-56
2023/06/13 08:19:52;;;;;;;6.12;3.60;;;;;;;21.62;69.56;100493.03;1715177;81;21302;-57
2023/06/13 08:22:59;;;;;;;7.47;4.15;;;;;;;21.79;69.27;100501.49;1717785;81;21864;-54
2023/06/13 08:26:05;;;;;;;5.30;3.42;;;;;;;21.86;68.94;100503.08;1726744;81;21259;-54
2023/06/13 08:29:13;;;;;;;5.70;3.83;;;;;;;21.87;68.57;100497.79;1723631;81;21740;-55
2023/06/13 08:32:19;;;;;;;5.60;3.37;;;;;;;21.86;68.42;100493.32;1727871;81;21229;-56
2023/06/13 08:35:27;;;;;;;5.22;3.87;;;;;;;21.86;68.14;100494.71;1705470;83;21787;-58
2023/06/13 08:38:33;;;;;;;7.60;3.50;;;;;;;21.79;68.09;100495.38;1726250;81;21206;-57
2023/06/13 08:41:40;;;;;;;6.90;3.45;;;;;;;21.94;68.33;100499.05;1729000;82;21292;-57
2023/06/13 08:44:47;;;;;;;5.45;3.50;;;;;;;21.93;68.00;100498.19;1708079;83;21801;-57
2023/06/13 08:47:56;;;;;;;5.40;3.45;;;;;;;22.00;67.82;100500.84;1717104;81;21204;-58
2023/06/13 08:51:02;;;;;;;5.55;3.30;;;;;;;22.00;67.75;100505.88;1705494;83;21231;-57
2023/06/13 08:54:12;;;;;;;8.08;3.37;;;;;;;22.11;67.77;100499.42;1702236;83;21858;-57
2023/06/13 08:57:22;;;;;;;4.67;2.92;;;;;;;22.27;67.72;100495.52;1737348;81;21220;-59
2023/06/13 09:00:33;;;;;;;7.87;3.45;;;;;;;22.42;67.50;100497.22;1734373;81;21229;-53
2023/06/13 09:03:40;;;;;;;7.25;4.15;;;;;;;22.53;67.23;100498.60;1727932;83;21585;-53
2023/06/13 09:06:48;;;;;;;5.30;3.20;;;;;;;22.70;67.06;100495.28;1708483;83;21736;-53
2023/06/13 09:09:54;;;;;;;6.80;3.15;;;;;;;22.73;66.53;100499.50;1726163;82;21293;-54
2023/06/13 09:13:02;;;;;;;4.58;3.42;;;;;;;22.64;66.35;100491.25;1736858;82;21250;-55
2023/06/13 09:16:10;;;;;;;6.35;3.17;;;;;;;22.72;66.65;100491.66;1737953;82;21191;-55
2023/06/13 09:19:17;;;;;;;4.97;3.27;;;;;;;22.90;66.55;100493.38;1738389;82;21210;-55
2023/06/13 09:22:27;;;;;;;5.72;2.95;;;;;;;23.07;66.39;100492.27;1738323;82;21357;-54
2023/06/13 09:25:33;;;;;;;3.30;2.70;;;;;;;23.17;65.98;100489.65;1736124;82;21215;-52
2023/06/13 09:28:50;;;;;;;5.25;3.08;;;;;;;23.15;65.83;100482.64;1705362;84;21204;-54
2023/06/13 09:31:55;;;;;;;3.47;2.70;;;;;;;23.18;65.61;100483.52;1705400;84;21401;-55
2023/06/13 09:35:02;;;;;;;7.55;2.98;;;;;;;23.18;65.58;100481.55;1705791;84;21388;-55
2023/06/13 09:38:12;;;;;;;3.55;2.60;;;;;;;23.22;65.36;100479.95;1725708;81;21271;-55
2023/06/13 09:41:21;;;;;;;5.22;3.10;;;;;;;23.33;65.18;100482.38;1741317;81;22095;-54
2023/06/13 09:44:32;;;;;;;5.28;2.72;;;;;;;23.17;64.68;100475.69;1737019;81;21233;-55
2023/06/13 09:47:43;;;;;;;5.05;2.87;;;;;;;23.20;64.92;100475.17;1706290;83;21204;-54
2023/06/13 09:50:49;;;;;;;5.53;3.12;;;;;;;23.10;64.56;100486.75;1707373;83;21737;-55
2023/06/13 09:53:55;;;;;;;5.80;2.65;;;;;;;23.04;64.77;100486.38;1707614;83;21749;-54
2023/06/13 09:57:03;;;;;;;4.87;3.05;;;;;;;23.18;64.86;100484.34;1706170;82;21195;-53
2023/06/13 10:00:10;;;;;;;6.12;3.35;;;;;;;23.28;64.69;100484.55;1735347;81;21227;-54
2023/06/13 10:03:18;;;;;;;4.85;2.77;;;;;;;23.14;64.33;100479.53;1727133;81;21219;-58
2023/06/13 10:06:24;;;;;;;5.15;2.62;;;;;;;22.89;64.13;100486.96;1725510;80;21927;-57
2023/06/13 10:09:29;;;;;;;3.10;2.33;;;;;;;22.82;64.33;100477.03;1726404;82;21831;-58
2023/06/13 10:12:34;;;;;;;4.30;2.87;;;;;;;22.89;64.53;100469.35;1728794;83;21262;-57
2023/06/13 10:15:46;;;;;;;5.03;2.98;;;;;;;23.00;64.54;100474.86;1717967;82;21581;-60
2023/06/13 10:18:53;;;;;;;4.55;2.15;;;;;;;22.91;64.28;100471.35;1728102;82;21203;-59
2023/06/13 10:21:59;;;;;;;3.65;2.30;;;;;;;22.80;64.24;100459.72;1713231;83;21562;-58
2023/06/13 10:25:10;;;;;;;6.22;2.30;;;;;;;22.83;64.30;100467.04;1732282;82;21831;-60
2023/06/13 10:28:41;;;;;;;4.15;2.30;;;;;;;22.91;64.37;100461.58;1726062;82;21792;-60
2023/06/13 10:32:12;;;;;;;8.73;4.08;;;;;;;22.88;64.02;100464.88;1737855;82;21267;-58
2023/06/13 10:35:44;;;;;;;5.50;2.50;;;;;;;22.83;63.97;100459.20;1722663;82;21737;-56
2023/06/13 10:39:09;;;;;;;7.83;2.40;;;;;;;22.99;64.26;100475.94;1722595;82;21779;-56
2023/06/13 10:42:40;;;;;;;5.67;2.45;;;;;;;23.11;64.05;100459.95;1702381;84;21231;-56
2023/06/13 10:45:46;;;;;;;4.62;2.15;;;;;;;23.25;64.02;100456.23;1718004;81;21775;-56
2023/06/13 10:49:00;;;;;;;6.42;2.98;;;;;;;23.46;63.92;100455.47;1733293;82;21875;-54
2023/06/13 10:52:07;;;;;;;6.60;2.60;;;;;;;23.49;63.52;100449.36;1731804;82;21260;-56
2023/06/13 10:55:15;;;;;;;4.22;2.58;;;;;;;23.52;63.33;100448.84;1700879;81;21812;-56
2023/06/13 10:58:21;;;;;;;6.47;2.60;;;;;;;23.50;63.04;100445.45;1713338;82;21254;-56
2023/06/13 11:01:36;;;;;;;4.92;2.72;;;;;;;23.38;62.76;100444.20;1726749;82;21398;-56
2023/06/13 11:04:49;;;;;;;5.42;2.27;;;;;;;23.37;62.69;100443.06;1710562;82;21785;-57
2023/06/13 11:08:00;;;;;;;6.55;2.42;;;;;;;23.48;62.91;100442.09;1712112;83;21342;-57
2023/06/13 11:11:07;;;;;;;9.70;3.02;;;;;;;23.56;62.64;100436.06;1735804;81;21204;-55
2023/06/13 11:14:14;;;;;;;5.35;2.55;;;;;;;23.69;62.68;100442.63;1696010;82;21872;-54
2023/06/13 11:17:20;;;;;;;6.45;3.10;;;;;;;23.80;62.50;100440.84;1712374;82;21235;-55
2023/06/13 11:20:30;;;;;;;21.70;3.58;;;;;;;23.78;62.08;100438.84;1705759;84;22119;-54
2023/06/13 11:23:52;;;;;;;7.65;2.52;;;;;;;23.81;62.07;100442.52;1731222;82;21374;-53
2023/06/13 11:26:57;;;;;;;8.95;2.98;;;;;;;23.87;61.94;100438.13;1728119;83;21370;-52
2023/06/13 11:30:05;;;;;;;5.55;2.50;;;;;;;23.89;61.62;100437.86;1723713;82;21256;-51
2023/06/13 11:33:11;;;;;;;7.70;2.70;;;;;;;23.87;61.37;100440.92;1727094;82;21725;-54
2023/06/13 11:36:16;;;;;;;4.40;2.62;;;;;;;23.80;61.13;100437.47;1719964;82;21435;-59
2023/06/13 11:39:35;;;;;;;7.00;2.70;;;;;;;23.84;61.15;100433.59;1729407;81;21636;-53
2023/06/13 11:42:46;;;;;;;6.47;2.75;;;;;;;23.87;60.99;100426.09;1733659;81;21296;-55
2023/06/13 11:45:52;;;;;;;4.40;2.60;;;;;;;24.02;61.15;100434.16;1712940;80;21636;-55
2023/06/13 11:49:02;;;;;;;6.53;2.35;;;;;;;24.15;61.06;100428.13;1724049;81;21746;-54
2023/06/13 11:52:10;;;;;;;4.90;2.52;;;;;;;24.22;60.70;100431.58;1725281;82;21262;-56
2023/06/13 11:55:25;;;;;;;6.40;2.20;;;;;;;24.18;60.34;100422.58;1697763;84;21819;-54
2023/06/13 11:58:38;;;;;;;7.90;2.60;;;;;;;24.15;60.05;100428.13;1742670;81;21204;-55
2023/06/13 12:01:44;;;;;;;3.60;2.10;;;;;;;24.16;60.03;100423.39;1699013;84;21265;-53
2023/06/13 12:04:52;;;;;;;5.55;2.60;;;;;;;24.25;60.05;100426.84;1698521;84;21296;-55
2023/06/13 12:07:58;;;;;;;4.72;2.30;;;;;;;24.26;59.63;100419.31;1714242;82;21283;-54
2023/06/13 12:11:08;;;;;;;4.00;2.27;;;;;;;24.18;59.29;100421.18;1710869;83;21276;-56
2023/06/13 12:14:20;;;;;;;2.42;1.87;;;;;;;24.10;59.08;100407.66;1724938;82;21872;-52
2023/06/13 12:17:27;;;;;;;3.40;2.10;;;;;;;24.09;58.99;100408.20;1707794;83;21196;-54
2023/06/13 12:20:36;;;;;;;6.03;2.52;;;;;;;24.07;58.89;100406.22;1718652;82;21534;-55
2023/06/13 12:23:42;;;;;;;7.67;2.30;;;;;;;24.07;58.79;100403.41;1728160;82;21223;-55
2023/06/13 12:26:49;;;;;;;3.42;2.20;;;;;;;24.14;58.67;100399.87;1722416;82;21239;-53
2023/06/13 12:29:54;;;;;;;4.85;2.20;;;;;;;24.14;58.42;100401.81;1728013;82;21275;-55
2023/06/13 12:33:04;;;;;;;3.05;2.00;;;;;;;24.16;58.26;100392.06;1711358;81;21224;-55
2023/06/13 12:36:12;;;;;;;5.40;2.50;;;;;;;24.21;58.10;100396.32;1734172;81;21510;-56
2023/06/13 12:39:23;;;;;;;7.78;2.05;;;;;;;24.27;58.01;100372.87;1697940;84;21235;-57
2023/06/13 12:42:29;;;;;;;5.12;2.10;;;;;;;24.35;57.85;100370.98;1716298;83;21189;-54
2023/06/13 12:45:37;;;;;;;5.85;2.20;;;;;;;24.42;57.82;100367.39;1728239;82;21204;-55
2023/06/13 12:48:47;;;;;;;4.15;2.02;;;;;;;24.52;57.70;100352.09;1705538;82;21185;-57
2023/06/13 12:52:00;;;;;;;6.40;2.22;;;;;;;24.60;57.40;100355.80;1684116;82;21207;-54
2023/06/13 12:55:08;;;;;;;11.43;2.10;;;;;;;24.64;57.16;100351.34;1703823;83;21765;-53
2023/06/13 12:58:38;;;;;;;7.28;2.45;;;;;;;24.68;57.07;100346.09;1674333;84;21599;-57
2023/06/13 13:01:46;;;;;;;2.92;2.20;;;;;;;24.68;56.68;100343.28;1690539;84;21236;-53
2023/06/13 13:04:52;;;;;;;4.22;2.00;;;;;;;24.70;56.50;100346.13;1676703;84;21377;-55
2023/06/13 13:07:58;;;;;;;5.20;2.30;;;;;;;24.63;56.32;100341.27;1694994;83;21244;-55
2023/06/13 13:11:04;;;;;;;10.50;2.65;;;;;;;24.55;56.19;100338.96;1670117;86;21291;-55
2023/06/13 13:14:11;;;;;;;4.12;2.00;;;;;;;24.60;56.23;100330.61;1623276;87;21258;-55
2023/06/13 13:17:19;;;;;;;8.43;2.37;;;;;;;24.69;56.08;100333.22;1641204;85;21812;-55
2023/06/13 13:20:26;;;;;;;5.08;2.58;;;;;;;24.70;55.85;100342.47;1676702;85;21212;-54
2023/06/13 13:23:33;;;;;;;3.35;2.30;;;;;;;24.65;55.55;100341.84;1677265;85;21308;-55
2023/06/13 13:26:39;;;;;;;3.98;2.40;;;;;;;24.59;55.36;100342.89;1694501;84;21201;-57
2023/06/13 13:29:44;;;;;;;4.50;2.17;;;;;;;24.56;55.27;100342.04;1699108;84;21227;-54
2023/06/13 13:32:52;;;;;;;5.87;2.60;;;;;;;24.62;55.33;100342.39;1650554;86;21227;-55
2023/06/13 13:36:00;;;;;;;4.95;2.70;;;;;;;24.73;55.24;100337.19;1649260;86;21272;-55
2023/06/13 13:39:08;;;;;;;3.65;2.47;;;;;;;24.84;55.16;100333.34;1648562;86;21713;-54
2023/06/13 13:42:14;;;;;;;6.30;2.00;;;;;;;24.85;54.86;100339.21;1649910;85;21220;-55
2023/06/13 13:45:22;;;;;;;5.83;2.40;;;;;;;24.83;54.75;100330.23;1697563;83;21234;-56
2023/06/13 13:48:27;;;;;;;4.95;2.00;;;;;;;24.84;54.70;100324.94;1690801;83;21708;-55
2023/06/13 13:51:34;;;;;;;5.85;2.60;;;;;;;24.98;54.65;100325.28;1672908;84;22053;-56
2023/06/13 13:54:41;;;;;;;4.10;2.75;;;;;;;25.03;54.52;100325.32;1654752;85;21299;-56
2023/06/13 13:57:47;;;;;;;3.67;2.27;;;;;;;25.03;54.28;100325.32;1648062;85;21606;-54
2023/06/13 14:00:56;;;;;;;8.33;2.60;;;;;;;25.02;54.13;100325.86;1683803;83;21251;-55
2023/06/13 14:04:01;;;;;;;6.15;2.20;;;;;;;25.02;53.99;100320.84;1674794;83;21862;-56
2023/06/13 14:07:08;;;;;;;3.90;2.40;;;;;;;25.02;53.82;100310.45;1678041;84;21588;-54
2023/06/13 14:10:16;;;;;;;5.45;2.40;;;;;;;25.06;53.79;100314.97;1680075;84;21214;-55
2023/06/13 14:13:22;;;;;;;3.52;2.27;;;;;;;24.95;53.50;100307.63;1676771;84;21766;-54
2023/06/13 14:16:29;;;;;;;9.95;3.17;;;;;;;24.93;53.49;100305.64;1680775;83;21205;-54
2023/06/13 14:19:36;;;;;;;3.00;2.33;;;;;;;25.03;53.40;100307.11;1665160;84;21245;-54
2023/06/13 14:22:43;;;;;;;4.60;2.40;;;;;;;25.10;53.32;100307.72;1681272;84;21787;-56
2023/06/13 14:25:48;;;;;;;5.03;2.10;;;;;;;25.14;53.19;100306.05;1681498;83;21770;-55
2023/06/13 14:28:54;;;;;;;5.65;2.50;;;;;;;25.16;52.95;100309.42;1681114;84;21790;-55
2023/06/13 14:32:01;;;;;;;4.03;2.37;;;;;;;25.21;52.81;100305.80;1679456;84;21237;-55
2023/06/13 14:35:07;;;;;;;6.70;2.60;;;;;;;25.28;52.78;100308.63;1678828;84;21266;-55